Mario Luis — CUOW8 — position and weather

sailwx.info

Track history (hours):
 
Tides and Currents Weather Stations Pressure Air Temp Water Temp Dewpoint Dewpoint Depression Visibility Wind Speed Wind Dir Waves Ship Positions

Mario Luis

Last reported at 2017-Nov-03 09:01 UTC. Time now 2017-Dec-15 04:46 UTC.
Position N 37°08' W 008°32'.
Warning: this ship's position is 41 days out of date.

Length 23 m.

Type: Fishing. MMSI: 263401680.

Date/timePositionNaut miles runAvg speedWind from/ knotsBaromVisibWave heightAir tempDewpointWater temp
2017-Nov-03 09:01N 37°08' W 008°32'0 0.1
2017-Nov-03 09:00N 37°08' W 008°32'0 0.0
2017-Nov-03 08:30N 37°08' W 008°32'0 0.0
2017-Nov-03 08:01N 37°08' W 008°32'0 0.0
2017-Nov-03 07:31N 37°08' W 008°32'0 0.0
2017-Nov-03 07:00N 37°08' W 008°32'0 0.1
2017-Nov-03 06:30N 37°08' W 008°32'4 7.6
2017-Nov-03 06:01N 37°05' W 008°34'510.7
2017-Nov-03 05:31N 37°03' W 008°40'8 0.3
2017-Nov-02 04:59N 37°02' W 008°50'  
2017-Oct-30 10:46N 36°59' W 008°56'0 0.5
2017-Oct-30 10:30N 36°59' W 008°56'0 0.2
2017-Oct-30 09:58N 36°59' W 008°56'2 3.5
2017-Oct-30 09:30N 36°59' W 008°58'11 8.0
2017-Oct-30 08:05N 37°10' W 008°56'1 9.4
2017-Oct-30 08:00N 37°11' W 008°56'5 5.9
2017-Oct-30 07:08N 37°15' W 008°53'1 9.0
2017-Oct-30 06:59N 37°14' W 008°53'1 2.4
2017-Oct-30 06:30N 37°15' W 008°53'0 0.5
2017-Oct-30 05:59N 37°15' W 008°53'1 1.6
2017-Oct-30 05:30N 37°16' W 008°53'0 0.0
2017-Oct-30 05:00N 37°16' W 008°53'1 1.0
2017-Oct-30 04:30N 37°16' W 008°53'5 9.6
2017-Oct-30 04:00N 37°12' W 008°56'5 9.9
2017-Oct-30 03:28N 37°07' W 008°59'510.1
2017-Oct-30 03:00N 37°02' W 008°60'4 8.6
2017-Oct-30 02:30N 36°60' W 008°55'510.3
2017-Oct-30 02:00N 37°01' W 008°49'510.3
2017-Oct-30 01:30N 37°03' W 008°43'610.3
2017-Oct-30 00:56N 37°05' W 008°36'410.0
2017-Oct-30 00:29N 37°07' W 008°32'  
2017-Oct-27 14:03N 37°08' W 008°32'0 0.0
2017-Oct-27 13:55N 37°08' W 008°32'3 8.3
2017-Oct-27 13:30N 37°05' W 008°34'5 9.8
2017-Oct-27 13:00N 37°03' W 008°40'5 9.7
2017-Oct-27 12:30N 37°02' W 008°46'5 9.6
2017-Oct-27 12:00N 37°01' W 008°51'3 6.6
2017-Oct-27 11:30N 37°01' W 008°56'0 0.0
2017-Oct-27 11:00N 37°01' W 008°56'0 0.0
2017-Oct-27 10:30N 37°01' W 008°56'0 0.0
2017-Oct-27 10:00N 37°01' W 008°56'0 0.0
2017-Oct-27 09:30N 37°01' W 008°56'3 0.4
2017-Oct-27 01:53N 37°01' W 008°60'4 9.6
2017-Oct-27 01:30N 36°60' W 008°56'1 0.0
2017-Oct-26 07:47N 37°01' W 008°56'0 0.0
2017-Oct-25 02:06N 37°01' W 008°56'0 0.0
2017-Oct-25 01:57N 37°01' W 008°56'  
Track history (hours):
 
Tides and Currents Weather Stations Pressure Air Temp Water Temp Dewpoint Dewpoint Depression Visibility Wind Speed Wind Dir Waves Ship Positions

Mario Luis

Last reported at 2017-Nov-03 09:01 UTC. Time now 2017-Dec-15 04:46 UTC.
Position N 37°08' W 008°32'.
Warning: this ship's position is 41 days out of date.

Length 23 m.

Type: Fishing. MMSI: 263401680.

Date/timePositionNaut miles runAvg speedWind from/ knotsBaromVisibWave heightAir tempDewpointWater temp
2017-Nov-03 09:01N 37°08' W 008°32'0 0.1
2017-Nov-03 09:00N 37°08' W 008°32'0 0.0
2017-Nov-03 08:30N 37°08' W 008°32'0 0.0
2017-Nov-03 08:01N 37°08' W 008°32'0 0.0
2017-Nov-03 07:31N 37°08' W 008°32'0 0.0
2017-Nov-03 07:00N 37°08' W 008°32'0 0.1
2017-Nov-03 06:30N 37°08' W 008°32'4 7.6
2017-Nov-03 06:01N 37°05' W 008°34'510.7
2017-Nov-03 05:31N 37°03' W 008°40'8 0.3
2017-Nov-02 04:59N 37°02' W 008°50'  
2017-Oct-30 10:46N 36°59' W 008°56'0 0.5
2017-Oct-30 10:30N 36°59' W 008°56'0 0.2
2017-Oct-30 09:58N 36°59' W 008°56'2 3.5
2017-Oct-30 09:30N 36°59' W 008°58'11 8.0
2017-Oct-30 08:05N 37°10' W 008°56'1 9.4
2017-Oct-30 08:00N 37°11' W 008°56'5 5.9
2017-Oct-30 07:08N 37°15' W 008°53'1 9.0
2017-Oct-30 06:59N 37°14' W 008°53'1 2.4
2017-Oct-30 06:30N 37°15' W 008°53'0 0.5
2017-Oct-30 05:59N 37°15' W 008°53'1 1.6
2017-Oct-30 05:30N 37°16' W 008°53'0 0.0
2017-Oct-30 05:00N 37°16' W 008°53'1 1.0
2017-Oct-30 04:30N 37°16' W 008°53'5 9.6
2017-Oct-30 04:00N 37°12' W 008°56'5 9.9
2017-Oct-30 03:28N 37°07' W 008°59'510.1
2017-Oct-30 03:00N 37°02' W 008°60'4 8.6
2017-Oct-30 02:30N 36°60' W 008°55'510.3
2017-Oct-30 02:00N 37°01' W 008°49'510.3
2017-Oct-30 01:30N 37°03' W 008°43'610.3
2017-Oct-30 00:56N 37°05' W 008°36'410.0
2017-Oct-30 00:29N 37°07' W 008°32'  
2017-Oct-27 14:03N 37°08' W 008°32'0 0.0
2017-Oct-27 13:55N 37°08' W 008°32'3 8.3
2017-Oct-27 13:30N 37°05' W 008°34'5 9.8
2017-Oct-27 13:00N 37°03' W 008°40'5 9.7
2017-Oct-27 12:30N 37°02' W 008°46'5 9.6
2017-Oct-27 12:00N 37°01' W 008°51'3 6.6
2017-Oct-27 11:30N 37°01' W 008°56'0 0.0
2017-Oct-27 11:00N 37°01' W 008°56'0 0.0
2017-Oct-27 10:30N 37°01' W 008°56'0 0.0
2017-Oct-27 10:00N 37°01' W 008°56'0 0.0
2017-Oct-27 09:30N 37°01' W 008°56'3 0.4
2017-Oct-27 01:53N 37°01' W 008°60'4 9.6
2017-Oct-27 01:30N 36°60' W 008°56'1 0.0
2017-Oct-26 07:47N 37°01' W 008°56'0 0.0
2017-Oct-25 02:06N 37°01' W 008°56'0 0.0
2017-Oct-25 01:57N 37°01' W 008°56'  

Dump ship's entire track history